createdAt,value
2023-05-01T00:00:28.495Z,85.50
2023-05-01T00:05:33.221Z,86.05
2023-05-01T00:10:36.626Z,85.81
2023-05-01T00:15:43.242Z,84.99
2023-05-01T00:20:47.585Z,84.54
2023-05-01T00:25:50.675Z,84.85
2023-05-01T00:30:53.695Z,85.03
2023-05-01T00:35:58.044Z,85.10
2023-05-01T00:41:00.929Z,85.26
2023-05-01T00:46:04.133Z,85.16
2023-05-01T00:51:09.973Z,85.07
2023-05-01T00:56:13.237Z,84.45
2023-05-01T01:01:17.476Z,84.56
2023-05-01T01:06:31.365Z,85.73
2023-05-01T01:11:39.147Z,84.92
2023-05-01T01:16:48.561Z,85.18
2023-05-01T01:21:59.850Z,84.38
2023-05-01T01:27:25.155Z,84.85
2023-05-01T01:32:57.688Z,85.82
2023-05-01T01:38:07.983Z,84.76
2023-05-01T01:43:17.225Z,84.24
2023-05-01T01:48:27.479Z,85.73
2023-05-01T01:53:33.808Z,86.11
2023-05-01T01:58:40.379Z,85.09
2023-05-01T02:03:46.534Z,85.92
2023-05-01T02:08:52.820Z,85.41
2023-05-01T02:13:57.294Z,84.65
2023-05-01T02:19:02.786Z,85.66
2023-05-01T02:24:08.710Z,85.87
2023-05-01T02:29:12.109Z,86.37
2023-05-01T02:34:15.087Z,86.44
2023-05-01T02:39:19.974Z,86.60
2023-05-01T02:44:25.353Z,87.23
2023-05-01T02:49:29.592Z,87.77
2023-05-01T02:54:34.165Z,86.82
2023-05-01T02:59:37.464Z,86.31
2023-05-01T03:04:40.905Z,86.68
2023-05-01T03:09:45.236Z,87.80
2023-05-01T03:14:48.261Z,87.50
2023-05-01T03:19:51.549Z,86.33
2023-05-01T03:24:55.848Z,86.70
2023-05-01T03:29:58.875Z,86.12
2023-05-01T03:35:02.121Z,86.47
2023-05-01T03:40:08.140Z,86.31
2023-05-01T03:45:32.499Z,87.09
2023-05-01T03:50:35.581Z,87.42
2023-05-01T03:55:40.042Z,86.51
2023-05-01T04:00:43.179Z,87.37
2023-05-01T04:05:46.387Z,87.65
2023-05-01T04:10:51.078Z,87.28
2023-05-01T04:15:55.414Z,86.77
2023-05-01T04:20:59.984Z,86.95
2023-05-01T04:26:04.754Z,87.34
2023-05-01T04:31:07.848Z,87.04
2023-05-01T04:36:10.974Z,87.95
2023-05-01T04:41:15.692Z,86.77
2023-05-01T04:46:19.882Z,87.38
2023-05-01T04:51:23.937Z,86.31
2023-05-01T04:56:29.143Z,87.03
2023-05-01T05:01:36.826Z,86.62
2023-05-01T05:06:40.554Z,87.13
2023-05-01T05:11:50.319Z,86.19
2023-05-01T05:16:57.564Z,86.96
2023-05-01T05:22:03.464Z,86.98
2023-05-01T05:27:11.130Z,87.55
2023-05-01T05:32:14.214Z,88.64
2023-05-01T05:37:20.108Z,86.70
2023-05-01T05:42:29.395Z,86.79
2023-05-01T05:47:35.885Z,86.40
2023-05-01T05:52:39.386Z,86.07
2023-05-01T05:57:44.396Z,86.98
2023-05-01T06:02:48.024Z,87.00
2023-05-01T06:07:51.762Z,87.72
2023-05-01T06:13:02.025Z,87.13
2023-05-01T06:18:18.249Z,88.01
2023-05-01T06:23:21.616Z,90.43
2023-05-01T06:28:51.537Z,91.49
2023-05-01T06:33:54.704Z,94.86
2023-05-01T06:39:05.820Z,95.84
2023-05-01T06:44:10.246Z,94.60
2023-05-01T06:49:14.375Z,95.06
2023-05-01T06:54:17.339Z,96.06
2023-05-01T06:59:21.727Z,96.20
2023-05-01T07:04:25.087Z,95.71
2023-05-01T07:09:28.131Z,95.99
2023-05-01T07:14:32.485Z,95.68
2023-05-01T07:19:35.634Z,96.43
2023-05-01T07:24:38.954Z,97.22
2023-05-01T07:29:43.376Z,98.04
2023-05-01T07:34:46.558Z,97.06
2023-05-01T07:39:49.929Z,93.90
2023-05-01T07:44:54.489Z,95.69
2023-05-01T07:49:57.653Z,93.43
2023-05-01T07:55:00.757Z,91.80
2023-05-01T08:00:06.294Z,90.34
2023-05-01T08:05:16.175Z,87.98
2023-05-01T08:10:19.170Z,84.66
2023-05-01T08:15:23.708Z,83.46
2023-05-01T08:20:26.700Z,81.88
2023-05-01T08:25:31.640Z,80.88
2023-05-01T08:30:36.191Z,76.59
2023-05-01T08:35:39.414Z,76.76
2023-05-01T08:40:48.726Z,74.34
2023-05-01T08:45:57.292Z,72.68
2023-05-01T08:51:02.111Z,70.85
2023-05-01T08:56:07.712Z,65.68
2023-05-01T09:01:16.585Z,64.35
2023-05-01T09:06:21.339Z,67.77
2023-05-01T09:11:25.481Z,65.37
2023-05-01T09:16:31.131Z,63.38
2023-05-01T09:21:34.546Z,60.44
2023-05-01T09:26:41.952Z,63.72
2023-05-01T09:31:46.351Z,60.14
2023-05-01T09:36:50.249Z,62.61
2023-05-01T09:41:53.803Z,60.30
2023-05-01T09:46:58.205Z,65.51
2023-05-01T09:52:12.296Z,65.18
2023-05-01T09:57:15.335Z,65.81
2023-05-01T10:02:30.973Z,64.52
2023-05-01T10:07:34.584Z,66.44
2023-05-01T10:12:45.210Z,65.82
2023-05-01T10:17:52.777Z,67.43
2023-05-01T10:22:56.078Z,65.14
2023-05-01T10:27:59.588Z,63.77
2023-05-01T10:33:04.514Z,66.04
2023-05-01T10:38:09.379Z,66.91
2023-05-01T10:43:16.985Z,66.32
2023-05-01T10:48:56.026Z,66.14
2023-05-01T10:54:24.749Z,59.68
2023-05-01T10:59:28.305Z,61.81
2023-05-01T11:04:51.096Z,61.17
2023-05-01T11:09:57.743Z,62.48
2023-05-01T11:15:08.640Z,65.07
2023-05-01T11:20:14.430Z,61.89
2023-05-01T11:25:22.662Z,63.42
2023-05-01T11:30:26.442Z,66.44
2023-05-01T11:35:31.568Z,71.93
2023-05-01T11:40:36.131Z,77.41
2023-05-01T11:45:39.356Z,81.12
2023-05-01T11:50:44.086Z,84.24
2023-05-01T11:55:47.477Z,86.03
2023-05-01T12:00:51.786Z,86.51
2023-05-01T12:05:56.169Z,88.90
2023-05-01T12:11:00.749Z,93.25
2023-05-01T12:16:05.182Z,95.07
2023-05-01T12:21:17.966Z,94.38
2023-05-01T12:26:23.696Z,93.51
2023-05-01T12:31:28.654Z,95.40
2023-05-01T12:36:35.874Z,98.65
2023-05-01T12:41:40.624Z,100.00
2023-05-01T12:46:44.787Z,100.00
2023-05-01T12:51:50.931Z,100.00
2023-05-01T12:56:55.052Z,100.00
2023-05-01T13:02:00.501Z,100.00
2023-05-01T13:07:12.986Z,100.00
2023-05-01T13:12:17.421Z,94.90
2023-05-01T13:17:31.461Z,90.66
2023-05-01T13:22:40.481Z,85.72
2023-05-01T13:27:56.462Z,86.91
2023-05-01T13:33:00.602Z,77.76
2023-05-01T13:38:05.922Z,74.63
2023-05-01T13:43:17.608Z,71.82
2023-05-01T13:48:23.591Z,75.67
2023-05-01T13:53:27.983Z,73.29
2023-05-01T13:58:37.590Z,69.53
2023-05-01T14:03:43.277Z,72.20
2023-05-01T14:08:52.657Z,72.43
2023-05-01T14:14:00.181Z,72.48
2023-05-01T14:19:03.415Z,75.02
2023-05-01T14:24:08.951Z,70.99
2023-05-01T14:29:27.965Z,69.10
2023-05-01T14:34:31.495Z,70.68
2023-05-01T14:39:36.086Z,66.92
2023-05-01T14:44:43.535Z,69.40
2023-05-01T14:49:53.362Z,67.91
2023-05-01T14:54:58.166Z,68.99
2023-05-01T15:00:01.616Z,68.20
2023-05-01T15:05:04.911Z,68.51
2023-05-01T15:10:10.114Z,72.36
2023-05-01T15:15:13.329Z,66.62
2023-05-01T15:20:16.424Z,71.95
2023-05-01T15:25:21.142Z,67.48
2023-05-01T15:30:24.199Z,63.20
2023-05-01T15:35:27.370Z,67.31
2023-05-01T15:40:32.956Z,64.87
2023-05-01T15:45:36.167Z,65.63
2023-05-01T15:50:49.119Z,66.31
2023-05-01T15:55:57.654Z,64.73
2023-05-01T16:01:01.768Z,64.29
2023-05-01T16:06:08.401Z,64.72
2023-05-01T16:11:13.629Z,66.43
2023-05-01T16:16:27.929Z,65.13
2023-05-01T16:21:30.858Z,62.45
2023-05-01T16:26:38.744Z,61.69
2023-05-01T16:31:47.397Z,61.38
2023-05-01T16:36:50.850Z,66.51
2023-05-01T16:41:56.205Z,64.98
2023-05-01T16:47:00.147Z,59.02
2023-05-01T16:52:04.155Z,62.98
2023-05-01T16:57:09.350Z,66.15
2023-05-01T17:02:13.107Z,67.50
2023-05-01T17:09:22.145Z,70.03
2023-05-01T17:14:32.531Z,69.33
2023-05-01T17:19:38.880Z,70.07
2023-05-01T17:24:43.405Z,71.14
2023-05-01T17:29:46.592Z,71.66
2023-05-01T17:34:49.773Z,73.66
2023-05-01T17:39:54.156Z,73.07
2023-05-01T17:44:57.400Z,73.04
2023-05-01T17:50:01.464Z,72.74
2023-05-01T17:55:07.352Z,75.49
2023-05-01T18:00:12.390Z,75.06
2023-05-01T18:05:15.652Z,76.80
2023-05-01T18:10:20.266Z,78.43
2023-05-01T18:15:23.552Z,78.88
2023-05-01T18:20:26.647Z,79.36
2023-05-01T18:25:31.061Z,80.20
2023-05-01T18:30:34.195Z,81.15
2023-05-01T18:35:51.691Z,81.68
2023-05-01T18:40:56.150Z,82.61
2023-05-01T18:46:00.354Z,84.57
2023-05-01T18:51:08.964Z,85.25
2023-05-01T18:56:14.048Z,85.43
2023-05-01T19:01:17.104Z,86.84
2023-05-01T19:06:20.169Z,87.55
2023-05-01T19:11:26.385Z,89.00
2023-05-01T19:16:29.541Z,89.62
2023-05-01T19:21:32.980Z,89.64
2023-05-01T19:26:37.427Z,91.18
2023-05-01T19:31:40.519Z,91.90
2023-05-01T19:36:44.062Z,91.83
2023-05-01T19:41:48.600Z,93.61
2023-05-01T19:46:51.660Z,94.53
2023-05-01T19:51:54.906Z,94.95
2023-05-01T19:56:59.344Z,97.26
2023-05-01T20:02:02.533Z,96.89
2023-05-01T20:07:05.750Z,97.59
2023-05-01T20:12:10.167Z,100.00
2023-05-01T20:17:13.351Z,99.72
2023-05-01T20:22:16.809Z,100.00
2023-05-01T20:27:21.193Z,100.00
2023-05-01T20:32:24.222Z,100.00
2023-05-01T20:37:30.896Z,100.00
2023-05-01T20:42:35.301Z,100.00
2023-05-01T20:47:38.330Z,100.00
2023-05-01T20:52:44.207Z,100.00
2023-05-01T20:57:48.687Z,100.00
2023-05-01T21:02:52.892Z,100.00
2023-05-01T21:07:57.658Z,100.00
2023-05-01T21:13:02.297Z,100.00
2023-05-01T21:18:05.782Z,100.00
2023-05-01T21:23:09.143Z,100.00
2023-05-01T21:28:14.686Z,100.00
2023-05-01T21:33:18.298Z,100.00
2023-05-01T21:38:21.367Z,100.00
2023-05-01T21:43:25.835Z,100.00
2023-05-01T21:48:34.152Z,100.00
2023-05-01T21:53:37.363Z,100.00
2023-05-01T21:58:41.889Z,100.00
2023-05-01T22:03:46.799Z,100.00
2023-05-01T22:08:49.913Z,100.00
2023-05-01T22:13:54.240Z,100.00
2023-05-01T22:18:57.594Z,100.00
2023-05-01T22:24:00.574Z,100.00
2023-05-01T22:29:04.952Z,100.00
2023-05-01T22:34:09.062Z,100.00
2023-05-01T22:39:12.299Z,100.00
2023-05-01T22:44:16.750Z,100.00
2023-05-01T22:49:20.411Z,100.00
2023-05-01T22:54:23.546Z,100.00
2023-05-01T22:59:28.055Z,100.00
2023-05-01T23:04:31.983Z,100.00
2023-05-01T23:09:34.969Z,100.00
2023-05-01T23:14:46.038Z,100.00
2023-05-01T23:19:49.536Z,100.00
2023-05-01T23:24:52.564Z,100.00
2023-05-01T23:29:58.705Z,100.00
2023-05-01T23:35:06.546Z,100.00
2023-05-01T23:40:10.500Z,100.00
2023-05-01T23:45:15.141Z,100.00
2023-05-01T23:50:18.441Z,100.00
2023-05-01T23:55:21.346Z,100.00
